sensor_id;sensor_type;location;lat;lon;timestamp;P1;durP1;ratioP1;P2;durP2;ratioP2
80245;SDS011;69558;39.208;-77.226;2023-07-13T00:01:43;2.15;;;1.52;;
80245;SDS011;69558;39.208;-77.226;2023-07-13T00:04:11;2.15;;;1.58;;
80245;SDS011;69558;39.208;-77.226;2023-07-13T00:06:39;2.15;;;1.58;;
80245;SDS011;69558;39.208;-77.226;2023-07-13T00:09:04;1.98;;;1.50;;
80245;SDS011;69558;39.208;-77.226;2023-07-13T00:11:31;1.50;;;0.80;;
80245;SDS011;69558;39.208;-77.226;2023-07-13T00:13:58;2.35;;;1.35;;
80245;SDS011;69558;39.208;-77.226;2023-07-13T00:16:24;1.98;;;1.60;;
80245;SDS011;69558;39.208;-77.226;2023-07-13T00:18:50;1.88;;;1.10;;
80245;SDS011;69558;39.208;-77.226;2023-07-13T00:21:18;2.35;;;1.83;;
80245;SDS011;69558;39.208;-77.226;2023-07-13T00:23:44;1.83;;;0.82;;
80245;SDS011;69558;39.208;-77.226;2023-07-13T00:26:10;1.50;;;0.82;;
80245;SDS011;69558;39.208;-77.226;2023-07-13T00:28:38;1.73;;;0.98;;
80245;SDS011;69558;39.208;-77.226;2023-07-13T00:31:07;2.08;;;1.50;;
80245;SDS011;69558;39.208;-77.226;2023-07-13T00:33:35;2.03;;;1.58;;
80245;SDS011;69558;39.208;-77.226;2023-07-13T00:36:02;2.05;;;1.00;;
80245;SDS011;69558;39.208;-77.226;2023-07-13T00:38:29;2.10;;;1.67;;
80245;SDS011;69558;39.208;-77.226;2023-07-13T00:40:56;2.17;;;1.40;;
80245;SDS011;69558;39.208;-77.226;2023-07-13T00:43:27;2.13;;;1.60;;
80245;SDS011;69558;39.208;-77.226;2023-07-13T00:48:26;2.65;;;1.63;;
80245;SDS011;69558;39.208;-77.226;2023-07-13T00:50:57;2.10;;;1.63;;
80245;SDS011;69558;39.208;-77.226;2023-07-13T00:53:26;2.35;;;1.92;;
80245;SDS011;69558;39.208;-77.226;2023-07-13T00:55:54;1.83;;;1.42;;
80245;SDS011;69558;39.208;-77.226;2023-07-13T00:58:22;1.42;;;0.82;;
80245;SDS011;69558;39.208;-77.226;2023-07-13T01:00:50;2.05;;;1.70;;
80245;SDS011;69558;39.208;-77.226;2023-07-13T01:03:18;1.98;;;1.58;;
80245;SDS011;69558;39.208;-77.226;2023-07-13T01:05:44;2.25;;;1.50;;
80245;SDS011;69558;39.208;-77.226;2023-07-13T01:08:14;2.08;;;1.60;;
80245;SDS011;69558;39.208;-77.226;2023-07-13T01:10:40;2.38;;;1.60;;
80245;SDS011;69558;39.208;-77.226;2023-07-13T01:13:07;2.30;;;1.77;;
80245;SDS011;69558;39.208;-77.226;2023-07-13T01:15:41;1.83;;;0.93;;
80245;SDS011;69558;39.208;-77.226;2023-07-13T01:18:18;2.53;;;1.70;;
80245;SDS011;69558;39.208;-77.226;2023-07-13T01:20:50;2.47;;;1.73;;
80245;SDS011;69558;39.208;-77.226;2023-07-13T01:23:27;2.00;;;1.00;;
80245;SDS011;69558;39.208;-77.226;2023-07-13T01:25:55;2.15;;;1.10;;
80245;SDS011;69558;39.208;-77.226;2023-07-13T01:28:22;2.42;;;1.73;;
80245;SDS011;69558;39.208;-77.226;2023-07-13T01:30:53;2.38;;;1.27;;
80245;SDS011;69558;39.208;-77.226;2023-07-13T01:33:20;1.75;;;1.15;;
80245;SDS011;69558;39.208;-77.226;2023-07-13T01:35:47;2.15;;;1.88;;
80245;SDS011;69558;39.208;-77.226;2023-07-13T01:38:14;2.17;;;1.13;;
80245;SDS011;69558;39.208;-77.226;2023-07-13T01:40:42;2.47;;;1.08;;
80245;SDS011;69558;39.208;-77.226;2023-07-13T01:43:09;2.10;;;1.27;;
80245;SDS011;69558;39.208;-77.226;2023-07-13T01:45:35;2.22;;;1.35;;
80245;SDS011;69558;39.208;-77.226;2023-07-13T01:48:01;2.03;;;1.00;;
80245;SDS011;69558;39.208;-77.226;2023-07-13T01:50:27;2.20;;;1.10;;
80245;SDS011;69558;39.208;-77.226;2023-07-13T01:52:54;2.13;;;1.30;;
80245;SDS011;69558;39.208;-77.226;2023-07-13T01:55:21;2.65;;;1.85;;
80245;SDS011;69558;39.208;-77.226;2023-07-13T01:57:47;2.88;;;1.90;;
80245;SDS011;69558;39.208;-77.226;2023-07-13T02:00:14;2.03;;;1.00;;
80245;SDS011;69558;39.208;-77.226;2023-07-13T02:02:40;2.33;;;1.33;;
80245;SDS011;69558;39.208;-77.226;2023-07-13T02:05:07;3.22;;;2.03;;
80245;SDS011;69558;39.208;-77.226;2023-07-13T02:07:33;3.70;;;2.00;;
80245;SDS011;69558;39.208;-77.226;2023-07-13T02:09:59;3.35;;;1.65;;
80245;SDS011;69558;39.208;-77.226;2023-07-13T02:12:26;2.17;;;1.30;;
80245;SDS011;69558;39.208;-77.226;2023-07-13T02:14:52;2.97;;;2.03;;
80245;SDS011;69558;39.208;-77.226;2023-07-13T02:17:18;2.47;;;1.42;;
80245;SDS011;69558;39.208;-77.226;2023-07-13T02:22:12;2.83;;;2.13;;
80245;SDS011;69558;39.208;-77.226;2023-07-13T02:24:38;2.25;;;1.33;;
80245;SDS011;69558;39.208;-77.226;2023-07-13T02:27:04;2.25;;;1.80;;
80245;SDS011;69558;39.208;-77.226;2023-07-13T02:29:30;3.08;;;2.03;;
80245;SDS011;69558;39.208;-77.226;2023-07-13T02:31:56;3.22;;;2.10;;
80245;SDS011;69558;39.208;-77.226;2023-07-13T02:34:22;3.08;;;2.13;;
80245;SDS011;69558;39.208;-77.226;2023-07-13T02:36:48;2.05;;;1.10;;
80245;SDS011;69558;39.208;-77.226;2023-07-13T02:39:14;3.83;;;1.52;;
80245;SDS011;69558;39.208;-77.226;2023-07-13T02:41:40;2.53;;;1.45;;
80245;SDS011;69558;39.208;-77.226;2023-07-13T02:44:06;1.65;;;1.13;;
80245;SDS011;69558;39.208;-77.226;2023-07-13T02:46:35;2.17;;;1.13;;
80245;SDS011;69558;39.208;-77.226;2023-07-13T02:49:02;2.58;;;1.20;;
80245;SDS011;69558;39.208;-77.226;2023-07-13T02:51:29;2.92;;;1.98;;
80245;SDS011;69558;39.208;-77.226;2023-07-13T02:53:56;2.67;;;2.00;;
80245;SDS011;69558;39.208;-77.226;2023-07-13T02:56:22;3.13;;;1.45;;
80245;SDS011;69558;39.208;-77.226;2023-07-13T02:58:51;1.95;;;1.30;;
80245;SDS011;69558;39.208;-77.226;2023-07-13T03:01:17;3.25;;;2.22;;
80245;SDS011;69558;39.208;-77.226;2023-07-13T03:03:45;2.63;;;1.35;;
80245;SDS011;69558;39.208;-77.226;2023-07-13T03:11:06;3.00;;;1.90;;
80245;SDS011;69558;39.208;-77.226;2023-07-13T03:13:34;2.55;;;1.63;;
80245;SDS011;69558;39.208;-77.226;2023-07-13T03:16:00;2.58;;;1.90;;
80245;SDS011;69558;39.208;-77.226;2023-07-13T03:18:29;2.92;;;2.47;;
80245;SDS011;69558;39.208;-77.226;2023-07-13T03:20:55;2.78;;;1.60;;
80245;SDS011;69558;39.208;-77.226;2023-07-13T03:23:22;3.22;;;2.67;;
80245;SDS011;69558;39.208;-77.226;2023-07-13T03:25:48;2.95;;;2.15;;
80245;SDS011;69558;39.208;-77.226;2023-07-13T03:28:14;3.03;;;2.45;;
80245;SDS011;69558;39.208;-77.226;2023-07-13T03:30:41;3.95;;;1.75;;
80245;SDS011;69558;39.208;-77.226;2023-07-13T03:33:07;2.28;;;1.40;;
80245;SDS011;69558;39.208;-77.226;2023-07-13T03:35:34;2.45;;;1.42;;
80245;SDS011;69558;39.208;-77.226;2023-07-13T03:38:00;3.00;;;2.35;;
80245;SDS011;69558;39.208;-77.226;2023-07-13T03:40:27;2.83;;;2.13;;
80245;SDS011;69558;39.208;-77.226;2023-07-13T03:42:54;2.50;;;1.45;;
80245;SDS011;69558;39.208;-77.226;2023-07-13T03:45:20;2.63;;;1.92;;
80245;SDS011;69558;39.208;-77.226;2023-07-13T03:47:47;2.88;;;2.05;;
80245;SDS011;69558;39.208;-77.226;2023-07-13T03:50:12;3.40;;;2.58;;
80245;SDS011;69558;39.208;-77.226;2023-07-13T03:52:38;2.85;;;1.55;;
80245;SDS011;69558;39.208;-77.226;2023-07-13T03:55:04;3.15;;;2.38;;
80245;SDS011;69558;39.208;-77.226;2023-07-13T03:57:31;2.47;;;1.60;;
80245;SDS011;69558;39.208;-77.226;2023-07-13T04:00:00;2.95;;;2.40;;
80245;SDS011;69558;39.208;-77.226;2023-07-13T04:02:26;2.70;;;2.00;;
80245;SDS011;69558;39.208;-77.226;2023-07-13T04:04:52;3.08;;;2.30;;
80245;SDS011;69558;39.208;-77.226;2023-07-13T04:07:18;2.97;;;1.70;;
80245;SDS011;69558;39.208;-77.226;2023-07-13T04:09:44;3.33;;;2.58;;
80245;SDS011;69558;39.208;-77.226;2023-07-13T04:12:10;3.60;;;2.58;;
80245;SDS011;69558;39.208;-77.226;2023-07-13T04:14:36;2.75;;;1.67;;
80245;SDS011;69558;39.208;-77.226;2023-07-13T04:17:02;3.20;;;2.35;;
80245;SDS011;69558;39.208;-77.226;2023-07-13T04:19:28;3.58;;;2.88;;
80245;SDS011;69558;39.208;-77.226;2023-07-13T04:21:54;3.22;;;2.55;;
80245;SDS011;69558;39.208;-77.226;2023-07-13T04:24:20;3.58;;;2.60;;
80245;SDS011;69558;39.208;-77.226;2023-07-13T04:26:46;3.33;;;2.63;;
80245;SDS011;69558;39.208;-77.226;2023-07-13T04:29:12;3.35;;;2.08;;
80245;SDS011;69558;39.208;-77.226;2023-07-13T04:31:38;3.58;;;2.45;;
80245;SDS011;69558;39.208;-77.226;2023-07-13T04:34:04;3.63;;;2.72;;
80245;SDS011;69558;39.208;-77.226;2023-07-13T04:36:32;3.10;;;1.80;;
80245;SDS011;69558;39.208;-77.226;2023-07-13T04:38:58;3.35;;;1.90;;
80245;SDS011;69558;39.208;-77.226;2023-07-13T04:41:24;2.60;;;1.77;;
80245;SDS011;69558;39.208;-77.226;2023-07-13T04:43:50;3.72;;;2.63;;
80245;SDS011;69558;39.208;-77.226;2023-07-13T04:46:17;3.33;;;2.65;;
80245;SDS011;69558;39.208;-77.226;2023-07-13T04:48:44;3.28;;;1.90;;
80245;SDS011;69558;39.208;-77.226;2023-07-13T04:51:10;3.50;;;2.63;;
80245;SDS011;69558;39.208;-77.226;2023-07-13T04:53:36;3.45;;;1.92;;
80245;SDS011;69558;39.208;-77.226;2023-07-13T04:56:03;3.50;;;2.88;;
80245;SDS011;69558;39.208;-77.226;2023-07-13T04:58:30;3.08;;;2.30;;
80245;SDS011;69558;39.208;-77.226;2023-07-13T05:01:00;3.30;;;2.53;;
80245;SDS011;69558;39.208;-77.226;2023-07-13T05:05:57;3.42;;;2.33;;
80245;SDS011;69558;39.208;-77.226;2023-07-13T05:08:25;2.80;;;1.70;;
80245;SDS011;69558;39.208;-77.226;2023-07-13T05:10:51;3.10;;;1.75;;
80245;SDS011;69558;39.208;-77.226;2023-07-13T05:13:18;3.08;;;1.80;;
80245;SDS011;69558;39.208;-77.226;2023-07-13T05:15:47;2.80;;;1.77;;
80245;SDS011;69558;39.208;-77.226;2023-07-13T05:18:21;3.25;;;2.60;;
80245;SDS011;69558;39.208;-77.226;2023-07-13T05:20:47;3.45;;;2.95;;
80245;SDS011;69558;39.208;-77.226;2023-07-13T05:23:22;3.40;;;2.05;;
80245;SDS011;69558;39.208;-77.226;2023-07-13T05:25:48;3.30;;;2.00;;
80245;SDS011;69558;39.208;-77.226;2023-07-13T05:28:15;2.95;;;2.38;;
80245;SDS011;69558;39.208;-77.226;2023-07-13T05:30:45;3.10;;;2.00;;
80245;SDS011;69558;39.208;-77.226;2023-07-13T05:33:12;4.05;;;2.97;;
80245;SDS011;69558;39.208;-77.226;2023-07-13T05:35:39;2.97;;;1.80;;
80245;SDS011;69558;39.208;-77.226;2023-07-13T05:38:05;3.17;;;2.50;;
80245;SDS011;69558;39.208;-77.226;2023-07-13T05:40:31;4.38;;;3.15;;
80245;SDS011;69558;39.208;-77.226;2023-07-13T05:42:59;2.95;;;1.80;;
80245;SDS011;69558;39.208;-77.226;2023-07-13T05:45:24;3.25;;;2.55;;
80245;SDS011;69558;39.208;-77.226;2023-07-13T05:47:51;3.20;;;2.00;;
80245;SDS011;69558;39.208;-77.226;2023-07-13T05:50:18;2.95;;;1.80;;
80245;SDS011;69558;39.208;-77.226;2023-07-13T05:52:44;3.63;;;2.85;;
80245;SDS011;69558;39.208;-77.226;2023-07-13T05:55:10;3.67;;;2.95;;
80245;SDS011;69558;39.208;-77.226;2023-07-13T05:57:37;3.72;;;2.00;;
80245;SDS011;69558;39.208;-77.226;2023-07-13T06:00:03;3.15;;;2.35;;
80245;SDS011;69558;39.208;-77.226;2023-07-13T06:02:29;3.88;;;3.15;;
80245;SDS011;69558;39.208;-77.226;2023-07-13T06:04:55;3.15;;;1.92;;
80245;SDS011;69558;39.208;-77.226;2023-07-13T06:07:22;3.78;;;3.00;;
80245;SDS011;69558;39.208;-77.226;2023-07-13T06:09:48;3.95;;;2.00;;
80245;SDS011;69558;39.208;-77.226;2023-07-13T06:12:14;3.72;;;2.72;;
80245;SDS011;69558;39.208;-77.226;2023-07-13T06:14:40;4.32;;;2.10;;
80245;SDS011;69558;39.208;-77.226;2023-07-13T06:17:07;3.45;;;2.72;;
80245;SDS011;69558;39.208;-77.226;2023-07-13T06:21:59;3.38;;;1.83;;
80245;SDS011;69558;39.208;-77.226;2023-07-13T06:24:26;3.08;;;1.80;;
80245;SDS011;69558;39.208;-77.226;2023-07-13T06:26:52;3.50;;;2.72;;
80245;SDS011;69558;39.208;-77.226;2023-07-13T06:29:18;3.25;;;2.10;;
80245;SDS011;69558;39.208;-77.226;2023-07-13T06:31:44;3.00;;;1.95;;
80245;SDS011;69558;39.208;-77.226;2023-07-13T06:34:10;3.80;;;2.80;;
80245;SDS011;69558;39.208;-77.226;2023-07-13T06:36:36;3.85;;;2.83;;
80245;SDS011;69558;39.208;-77.226;2023-07-13T06:39:03;3.70;;;3.00;;
80245;SDS011;69558;39.208;-77.226;2023-07-13T06:41:31;3.78;;;2.10;;
80245;SDS011;69558;39.208;-77.226;2023-07-13T06:43:58;3.90;;;2.80;;
80245;SDS011;69558;39.208;-77.226;2023-07-13T06:46:25;3.75;;;2.05;;
80245;SDS011;69558;39.208;-77.226;2023-07-13T06:48:51;3.63;;;2.75;;
80245;SDS011;69558;39.208;-77.226;2023-07-13T06:51:17;3.63;;;2.72;;
80245;SDS011;69558;39.208;-77.226;2023-07-13T06:53:42;4.07;;;2.90;;
80245;SDS011;69558;39.208;-77.226;2023-07-13T06:56:10;2.95;;;1.85;;
80245;SDS011;69558;39.208;-77.226;2023-07-13T06:58:37;3.17;;;2.03;;
80245;SDS011;69558;39.208;-77.226;2023-07-13T07:01:03;3.42;;;2.78;;
80245;SDS011;69558;39.208;-77.226;2023-07-13T07:03:30;3.70;;;2.95;;
80245;SDS011;69558;39.208;-77.226;2023-07-13T07:06:06;3.88;;;2.83;;
80245;SDS011;69558;39.208;-77.226;2023-07-13T07:08:42;3.75;;;2.40;;
80245;SDS011;69558;39.208;-77.226;2023-07-13T07:11:14;3.60;;;2.70;;
80245;SDS011;69558;39.208;-77.226;2023-07-13T07:16:10;4.45;;;2.25;;
80245;SDS011;69558;39.208;-77.226;2023-07-13T07:18:37;3.03;;;1.88;;
80245;SDS011;69558;39.208;-77.226;2023-07-13T07:21:03;3.10;;;1.92;;
80245;SDS011;69558;39.208;-77.226;2023-07-13T07:23:30;3.50;;;2.95;;
80245;SDS011;69558;39.208;-77.226;2023-07-13T07:25:56;3.22;;;2.00;;
80245;SDS011;69558;39.208;-77.226;2023-07-13T07:28:22;2.92;;;1.70;;
80245;SDS011;69558;39.208;-77.226;2023-07-13T07:30:51;3.70;;;2.85;;
80245;SDS011;69558;39.208;-77.226;2023-07-13T07:33:19;3.10;;;1.98;;
80245;SDS011;69558;39.208;-77.226;2023-07-13T07:35:47;3.55;;;2.65;;
80245;SDS011;69558;39.208;-77.226;2023-07-13T07:38:13;3.72;;;2.08;;
80245;SDS011;69558;39.208;-77.226;2023-07-13T07:40:39;3.53;;;2.15;;
80245;SDS011;69558;39.208;-77.226;2023-07-13T07:43:07;4.70;;;3.20;;
80245;SDS011;69558;39.208;-77.226;2023-07-13T07:45:35;3.00;;;1.90;;
80245;SDS011;69558;39.208;-77.226;2023-07-13T07:48:03;3.53;;;2.67;;
80245;SDS011;69558;39.208;-77.226;2023-07-13T07:50:30;4.18;;;3.10;;
80245;SDS011;69558;39.208;-77.226;2023-07-13T07:52:57;3.10;;;1.90;;
80245;SDS011;69558;39.208;-77.226;2023-07-13T07:55:24;5.35;;;3.53;;
80245;SDS011;69558;39.208;-77.226;2023-07-13T07:57:54;3.30;;;2.83;;
80245;SDS011;69558;39.208;-77.226;2023-07-13T08:00:22;3.80;;;2.90;;
80245;SDS011;69558;39.208;-77.226;2023-07-13T08:02:48;4.10;;;3.22;;
80245;SDS011;69558;39.208;-77.226;2023-07-13T08:05:16;3.60;;;2.40;;
80245;SDS011;69558;39.208;-77.226;2023-07-13T08:07:43;4.00;;;2.85;;
80245;SDS011;69558;39.208;-77.226;2023-07-13T08:10:09;3.50;;;2.80;;
80245;SDS011;69558;39.208;-77.226;2023-07-13T08:12:36;4.40;;;3.10;;
80245;SDS011;69558;39.208;-77.226;2023-07-13T08:15:03;3.30;;;2.08;;
80245;SDS011;69558;39.208;-77.226;2023-07-13T08:17:30;2.90;;;1.70;;
80245;SDS011;69558;39.208;-77.226;2023-07-13T08:19:57;4.13;;;3.17;;
80245;SDS011;69558;39.208;-77.226;2023-07-13T08:22:22;3.42;;;2.22;;
80245;SDS011;69558;39.208;-77.226;2023-07-13T08:24:48;3.80;;;2.90;;
80245;SDS011;69558;39.208;-77.226;2023-07-13T08:27:21;3.83;;;3.10;;
80245;SDS011;69558;39.208;-77.226;2023-07-13T08:32:15;3.03;;;1.92;;
80245;SDS011;69558;39.208;-77.226;2023-07-13T08:34:42;3.80;;;2.35;;
80245;SDS011;69558;39.208;-77.226;2023-07-13T08:37:08;3.45;;;2.70;;
80245;SDS011;69558;39.208;-77.226;2023-07-13T08:39:35;4.00;;;3.30;;
80245;SDS011;69558;39.208;-77.226;2023-07-13T08:42:04;3.58;;;2.30;;
80245;SDS011;69558;39.208;-77.226;2023-07-13T08:44:46;3.55;;;2.20;;
80245;SDS011;69558;39.208;-77.226;2023-07-13T08:47:37;4.63;;;3.03;;
80245;SDS011;69558;39.208;-77.226;2023-07-13T08:50:17;3.10;;;2.00;;
80245;SDS011;69558;39.208;-77.226;2023-07-13T08:52:46;7.85;;;4.05;;
80245;SDS011;69558;39.208;-77.226;2023-07-13T08:55:18;3.75;;;3.05;;
80245;SDS011;69558;39.208;-77.226;2023-07-13T09:00:58;3.05;;;2.10;;
80245;SDS011;69558;39.208;-77.226;2023-07-13T09:03:37;4.05;;;3.22;;
80245;SDS011;69558;39.208;-77.226;2023-07-13T09:06:21;3.47;;;2.22;;
80245;SDS011;69558;39.208;-77.226;2023-07-13T09:08:59;3.83;;;3.25;;
80245;SDS011;69558;39.208;-77.226;2023-07-13T09:11:49;3.65;;;2.97;;
80245;SDS011;69558;39.208;-77.226;2023-07-13T09:14:44;4.07;;;2.95;;
80245;SDS011;69558;39.208;-77.226;2023-07-13T09:17:15;3.60;;;2.33;;
80245;SDS011;69558;39.208;-77.226;2023-07-13T09:19:48;4.03;;;3.13;;
80245;SDS011;69558;39.208;-77.226;2023-07-13T09:22:20;3.95;;;3.30;;
80245;SDS011;69558;39.208;-77.226;2023-07-13T09:25:00;3.28;;;2.10;;
80245;SDS011;69558;39.208;-77.226;2023-07-13T09:27:33;3.47;;;2.30;;
80245;SDS011;69558;39.208;-77.226;2023-07-13T09:32:30;3.90;;;2.90;;
80245;SDS011;69558;39.208;-77.226;2023-07-13T09:34:58;4.13;;;3.28;;
80245;SDS011;69558;39.208;-77.226;2023-07-13T09:37:28;3.90;;;3.15;;
80245;SDS011;69558;39.208;-77.226;2023-07-13T09:39:58;4.50;;;3.58;;
80245;SDS011;69558;39.208;-77.226;2023-07-13T09:42:30;3.70;;;3.10;;
80245;SDS011;69558;39.208;-77.226;2023-07-13T09:45:00;3.50;;;2.20;;
80245;SDS011;69558;39.208;-77.226;2023-07-13T09:47:32;3.88;;;2.50;;
80245;SDS011;69558;39.208;-77.226;2023-07-13T09:50:06;4.05;;;3.03;;
80245;SDS011;69558;39.208;-77.226;2023-07-13T09:52:44;4.07;;;3.17;;
80245;SDS011;69558;39.208;-77.226;2023-07-13T09:55:26;4.47;;;3.40;;
80245;SDS011;69558;39.208;-77.226;2023-07-13T09:57:55;3.72;;;3.03;;
80245;SDS011;69558;39.208;-77.226;2023-07-13T10:00:23;4.03;;;3.05;;
80245;SDS011;69558;39.208;-77.226;2023-07-13T10:03:26;3.85;;;3.08;;
80245;SDS011;69558;39.208;-77.226;2023-07-13T10:05:50;3.40;;;2.30;;
80245;SDS011;69558;39.208;-77.226;2023-07-13T10:08:27;4.07;;;3.22;;
80245;SDS011;69558;39.208;-77.226;2023-07-13T10:10:59;3.40;;;2.30;;
80245;SDS011;69558;39.208;-77.226;2023-07-13T10:13:35;3.70;;;2.35;;
80245;SDS011;69558;39.208;-77.226;2023-07-13T10:16:03;4.05;;;2.58;;
80245;SDS011;69558;39.208;-77.226;2023-07-13T10:18:35;3.35;;;2.45;;
80245;SDS011;69558;39.208;-77.226;2023-07-13T10:21:18;3.63;;;2.90;;
80245;SDS011;69558;39.208;-77.226;2023-07-13T10:23:48;4.28;;;3.10;;
80245;SDS011;69558;39.208;-77.226;2023-07-13T10:26:23;3.45;;;2.33;;
80245;SDS011;69558;39.208;-77.226;2023-07-13T10:28:53;3.97;;;2.60;;
80245;SDS011;69558;39.208;-77.226;2023-07-13T10:31:22;3.65;;;2.22;;
80245;SDS011;69558;39.208;-77.226;2023-07-13T10:33:49;3.60;;;2.50;;
80245;SDS011;69558;39.208;-77.226;2023-07-13T10:39:06;4.13;;;3.15;;
80245;SDS011;69558;39.208;-77.226;2023-07-13T10:41:36;4.15;;;3.28;;
80245;SDS011;69558;39.208;-77.226;2023-07-13T10:44:10;3.65;;;2.40;;
80245;SDS011;69558;39.208;-77.226;2023-07-13T10:47:01;3.85;;;3.20;;
80245;SDS011;69558;39.208;-77.226;2023-07-13T10:49:31;3.35;;;2.33;;
80245;SDS011;69558;39.208;-77.226;2023-07-13T10:52:01;3.20;;;2.20;;
80245;SDS011;69558;39.208;-77.226;2023-07-13T10:54:31;3.55;;;2.30;;
80245;SDS011;69558;39.208;-77.226;2023-07-13T10:59:38;3.80;;;2.47;;
80245;SDS011;69558;39.208;-77.226;2023-07-13T11:02:10;4.10;;;3.58;;
80245;SDS011;69558;39.208;-77.226;2023-07-13T11:04:41;3.22;;;2.20;;
80245;SDS011;69558;39.208;-77.226;2023-07-13T11:07:16;3.40;;;2.25;;
80245;SDS011;69558;39.208;-77.226;2023-07-13T11:09:49;3.78;;;2.50;;
80245;SDS011;69558;39.208;-77.226;2023-07-13T11:22:49;4.57;;;3.17;;
80245;SDS011;69558;39.208;-77.226;2023-07-13T11:25:35;4.22;;;3.42;;
80245;SDS011;69558;39.208;-77.226;2023-07-13T11:38:42;3.25;;;2.00;;
80245;SDS011;69558;39.208;-77.226;2023-07-13T11:41:15;4.32;;;3.38;;
80245;SDS011;69558;39.208;-77.226;2023-07-13T11:43:52;4.32;;;3.33;;
80245;SDS011;69558;39.208;-77.226;2023-07-13T11:46:23;4.40;;;2.40;;
80245;SDS011;69558;39.208;-77.226;2023-07-13T11:48:52;3.20;;;2.10;;
80245;SDS011;69558;39.208;-77.226;2023-07-13T11:53:48;4.03;;;3.35;;
80245;SDS011;69558;39.208;-77.226;2023-07-13T11:56:16;3.40;;;2.30;;
80245;SDS011;69558;39.208;-77.226;2023-07-13T11:58:42;3.88;;;2.33;;
80245;SDS011;69558;39.208;-77.226;2023-07-13T12:01:16;3.58;;;2.55;;
80245;SDS011;69558;39.208;-77.226;2023-07-13T12:03:48;3.60;;;2.45;;
80245;SDS011;69558;39.208;-77.226;2023-07-13T12:06:24;4.30;;;2.50;;
80245;SDS011;69558;39.208;-77.226;2023-07-13T12:08:57;3.55;;;2.35;;
80245;SDS011;69558;39.208;-77.226;2023-07-13T12:11:29;3.50;;;2.15;;
80245;SDS011;69558;39.208;-77.226;2023-07-13T12:13:55;3.90;;;2.10;;
80245;SDS011;69558;39.208;-77.226;2023-07-13T12:19:01;3.45;;;2.90;;
80245;SDS011;69558;39.208;-77.226;2023-07-13T12:21:43;3.92;;;2.75;;
80245;SDS011;69558;39.208;-77.226;2023-07-13T12:24:14;4.32;;;3.50;;
80245;SDS011;69558;39.208;-77.226;2023-07-13T12:26:42;4.10;;;3.45;;
80245;SDS011;69558;39.208;-77.226;2023-07-13T12:29:14;4.20;;;2.65;;
80245;SDS011;69558;39.208;-77.226;2023-07-13T12:31:43;4.22;;;3.45;;
80245;SDS011;69558;39.208;-77.226;2023-07-13T12:36:46;3.70;;;2.47;;
80245;SDS011;69558;39.208;-77.226;2023-07-13T12:41:44;4.50;;;3.63;;
80245;SDS011;69558;39.208;-77.226;2023-07-13T12:44:11;3.40;;;2.28;;
80245;SDS011;69558;39.208;-77.226;2023-07-13T12:46:39;3.40;;;2.17;;
80245;SDS011;69558;39.208;-77.226;2023-07-13T12:49:17;3.78;;;2.58;;
80245;SDS011;69558;39.208;-77.226;2023-07-13T12:51:49;3.40;;;2.40;;
80245;SDS011;69558;39.208;-77.226;2023-07-13T12:54:17;3.58;;;3.03;;
80245;SDS011;69558;39.208;-77.226;2023-07-13T12:56:45;3.40;;;3.05;;
80245;SDS011;69558;39.208;-77.226;2023-07-13T12:59:19;4.00;;;3.15;;
80245;SDS011;69558;39.208;-77.226;2023-07-13T13:01:48;3.70;;;2.30;;
80245;SDS011;69558;39.208;-77.226;2023-07-13T13:04:16;3.85;;;2.28;;
80245;SDS011;69558;39.208;-77.226;2023-07-13T13:06:47;3.67;;;2.50;;
80245;SDS011;69558;39.208;-77.226;2023-07-13T13:09:15;4.55;;;3.25;;
80245;SDS011;69558;39.208;-77.226;2023-07-13T13:11:43;3.80;;;2.58;;
80245;SDS011;69558;39.208;-77.226;2023-07-13T13:14:10;4.50;;;3.65;;
80245;SDS011;69558;39.208;-77.226;2023-07-13T13:16:40;4.30;;;2.55;;
80245;SDS011;69558;39.208;-77.226;2023-07-13T13:21:38;4.32;;;3.47;;
80245;SDS011;69558;39.208;-77.226;2023-07-13T13:24:09;4.38;;;3.60;;
80245;SDS011;69558;39.208;-77.226;2023-07-13T13:26:49;4.03;;;3.47;;
80245;SDS011;69558;39.208;-77.226;2023-07-13T13:29:24;3.90;;;2.70;;
80245;SDS011;69558;39.208;-77.226;2023-07-13T13:31:51;4.30;;;3.30;;
80245;SDS011;69558;39.208;-77.226;2023-07-13T13:34:20;4.05;;;2.95;;
80245;SDS011;69558;39.208;-77.226;2023-07-13T13:36:51;3.70;;;2.67;;
80245;SDS011;69558;39.208;-77.226;2023-07-13T13:39:22;4.07;;;2.97;;
80245;SDS011;69558;39.208;-77.226;2023-07-13T13:41:51;4.20;;;3.58;;
80245;SDS011;69558;39.208;-77.226;2023-07-13T13:44:19;4.40;;;3.60;;
80245;SDS011;69558;39.208;-77.226;2023-07-13T13:46:47;3.92;;;2.38;;
80245;SDS011;69558;39.208;-77.226;2023-07-13T13:49:24;3.78;;;2.53;;
80245;SDS011;69558;39.208;-77.226;2023-07-13T13:51:52;4.05;;;2.78;;
80245;SDS011;69558;39.208;-77.226;2023-07-13T13:54:19;4.43;;;3.78;;
80245;SDS011;69558;39.208;-77.226;2023-07-13T13:56:47;3.95;;;2.80;;
80245;SDS011;69558;39.208;-77.226;2023-07-13T13:59:15;3.80;;;2.70;;
80245;SDS011;69558;39.208;-77.226;2023-07-13T14:01:43;4.28;;;3.10;;
80245;SDS011;69558;39.208;-77.226;2023-07-13T14:04:19;4.30;;;3.42;;
80245;SDS011;69558;39.208;-77.226;2023-07-13T14:06:47;4.55;;;2.85;;
80245;SDS011;69558;39.208;-77.226;2023-07-13T14:09:15;4.57;;;3.88;;
80245;SDS011;69558;39.208;-77.226;2023-07-13T14:11:43;4.45;;;2.67;;
80245;SDS011;69558;39.208;-77.226;2023-07-13T14:14:12;3.67;;;2.47;;
80245;SDS011;69558;39.208;-77.226;2023-07-13T14:16:41;4.00;;;2.78;;
80245;SDS011;69558;39.208;-77.226;2023-07-13T14:19:09;4.20;;;2.65;;
80245;SDS011;69558;39.208;-77.226;2023-07-13T14:21:37;4.13;;;2.72;;
80245;SDS011;69558;39.208;-77.226;2023-07-13T14:24:03;4.40;;;3.45;;
80245;SDS011;69558;39.208;-77.226;2023-07-13T14:26:31;4.20;;;3.47;;
80245;SDS011;69558;39.208;-77.226;2023-07-13T14:29:01;4.28;;;3.42;;
80245;SDS011;69558;39.208;-77.226;2023-07-13T14:31:27;4.40;;;3.30;;
80245;SDS011;69558;39.208;-77.226;2023-07-13T14:33:54;3.60;;;2.40;;
80245;SDS011;69558;39.208;-77.226;2023-07-13T14:38:55;3.92;;;2.50;;
80245;SDS011;69558;39.208;-77.226;2023-07-13T14:41:23;4.40;;;2.95;;
80245;SDS011;69558;39.208;-77.226;2023-07-13T14:43:49;3.90;;;2.70;;
80245;SDS011;69558;39.208;-77.226;2023-07-13T14:46:27;4.65;;;2.88;;
80245;SDS011;69558;39.208;-77.226;2023-07-13T14:48:58;4.03;;;2.60;;
80245;SDS011;69558;39.208;-77.226;2023-07-13T14:51:37;4.07;;;3.10;;
80245;SDS011;69558;39.208;-77.226;2023-07-13T14:54:04;3.80;;;2.75;;
80245;SDS011;69558;39.208;-77.226;2023-07-13T14:56:31;4.30;;;3.38;;
80245;SDS011;69558;39.208;-77.226;2023-07-13T14:58:57;3.65;;;2.40;;
80245;SDS011;69558;39.208;-77.226;2023-07-13T15:01:23;5.40;;;3.97;;
80245;SDS011;69558;39.208;-77.226;2023-07-13T15:03:51;3.70;;;2.50;;
80245;SDS011;69558;39.208;-77.226;2023-07-13T15:06:19;4.53;;;3.38;;
80245;SDS011;69558;39.208;-77.226;2023-07-13T15:08:46;4.10;;;2.55;;
80245;SDS011;69558;39.208;-77.226;2023-07-13T15:11:14;4.57;;;3.40;;
80245;SDS011;69558;39.208;-77.226;2023-07-13T15:13:42;4.40;;;3.72;;
80245;SDS011;69558;39.208;-77.226;2023-07-13T15:16:15;4.40;;;3.47;;
80245;SDS011;69558;39.208;-77.226;2023-07-13T15:18:46;4.20;;;3.25;;
80245;SDS011;69558;39.208;-77.226;2023-07-13T15:21:20;4.00;;;3.28;;
80245;SDS011;69558;39.208;-77.226;2023-07-13T15:23:49;3.78;;;2.50;;
80245;SDS011;69558;39.208;-77.226;2023-07-13T15:26:17;3.97;;;3.22;;
80245;SDS011;69558;39.208;-77.226;2023-07-13T15:28:44;4.53;;;3.40;;
80245;SDS011;69558;39.208;-77.226;2023-07-13T15:31:17;4.13;;;3.17;;
80245;SDS011;69558;39.208;-77.226;2023-07-13T15:33:46;4.05;;;3.03;;
80245;SDS011;69558;39.208;-77.226;2023-07-13T15:36:15;4.28;;;3.25;;
80245;SDS011;69558;39.208;-77.226;2023-07-13T15:38:43;3.28;;;2.22;;